createdAt,value
2023-11-02T00:00:38.734Z,11.01
2023-11-02T00:01:38.997Z,11.05
2023-11-02T00:02:39.118Z,11.06
2023-11-02T00:03:39.273Z,11.08
2023-11-02T00:04:39.480Z,11.08
2023-11-02T00:05:38.644Z,11.05
2023-11-02T00:06:39.172Z,11.06
2023-11-02T00:07:39.052Z,11.03
2023-11-02T00:08:39.268Z,11.05
2023-11-02T00:09:39.496Z,11.03
2023-11-02T00:10:38.737Z,11.05
2023-11-02T00:11:38.896Z,11.02
2023-11-02T00:12:39.152Z,10.99
2023-11-02T00:13:39.493Z,10.95
2023-11-02T00:14:38.506Z,10.95
2023-11-02T00:15:38.734Z,10.93
2023-11-02T00:16:38.963Z,10.90
2023-11-02T00:17:39.215Z,10.88
2023-11-02T00:18:39.593Z,10.86
2023-11-02T00:19:38.574Z,10.86
2023-11-02T00:20:38.816Z,10.84
2023-11-02T00:21:39.002Z,10.86
2023-11-02T00:22:39.231Z,10.84
2023-11-02T00:23:38.436Z,10.83
2023-11-02T00:24:38.642Z,10.81
2023-11-02T00:25:38.891Z,10.80
2023-11-02T00:26:39.108Z,10.80
2023-11-02T00:27:39.444Z,10.78
2023-11-02T00:28:38.653Z,10.78
2023-11-02T00:29:38.762Z,10.76
2023-11-02T00:30:39.020Z,10.76
2023-11-02T00:31:39.222Z,10.76
2023-11-02T00:32:38.504Z,10.78
2023-11-02T00:33:38.809Z,10.80
2023-11-02T00:34:38.923Z,10.80
2023-11-02T00:35:39.242Z,10.80
2023-11-02T00:36:38.346Z,10.76
2023-11-02T00:37:38.589Z,10.76
2023-11-02T00:38:38.750Z,10.78
2023-11-02T00:39:38.917Z,10.76
2023-11-02T00:40:39.162Z,10.70
2023-11-02T00:41:38.316Z,10.78
2023-11-02T00:42:38.542Z,10.80
2023-11-02T00:43:38.767Z,10.78
2023-11-02T00:44:39.010Z,10.80
2023-11-02T00:45:38.109Z,10.78
2023-11-02T00:46:38.298Z,10.80
2023-11-02T00:47:38.646Z,10.78
2023-11-02T00:48:38.769Z,10.78
2023-11-02T00:49:38.937Z,10.78
2023-11-02T00:50:38.143Z,10.78
2023-11-02T00:51:38.313Z,10.78
2023-11-02T00:52:38.548Z,10.80
2023-11-02T00:53:38.759Z,10.78
2023-11-02T00:54:38.974Z,10.78
2023-11-02T00:55:38.126Z,10.78
2023-11-02T00:56:38.406Z,10.78
2023-11-02T00:57:38.584Z,10.80
2023-11-02T00:58:38.772Z,10.81
2023-11-02T00:59:37.973Z,10.80
2023-11-02T01:00:38.243Z,10.78
2023-11-02T01:01:38.414Z,10.80
2023-11-02T01:02:38.657Z,10.78
2023-11-02T01:03:38.904Z,10.75
2023-11-02T01:04:39.068Z,10.75
2023-11-02T01:05:38.300Z,10.78
2023-11-02T01:06:38.573Z,10.73
2023-11-02T01:07:38.746Z,10.70
2023-11-02T01:08:37.953Z,10.69
2023-11-02T01:09:38.143Z,10.69
2023-11-02T01:10:38.395Z,10.66
2023-11-02T01:11:38.635Z,10.65
2023-11-02T01:12:37.779Z,10.66
2023-11-02T01:13:37.952Z,10.63
2023-11-02T01:14:38.152Z,10.66
2023-11-02T01:15:38.408Z,10.65
2023-11-02T01:16:38.681Z,10.55
2023-11-02T01:17:37.870Z,10.68
2023-11-02T01:18:38.130Z,10.66
2023-11-02T01:19:38.321Z,10.65
2023-11-02T01:20:38.474Z,10.65
2023-11-02T01:21:37.671Z,10.62
2023-11-02T01:22:38.056Z,10.60
2023-11-02T01:23:38.130Z,10.65
2023-11-02T01:24:38.337Z,10.63
2023-11-02T01:25:38.521Z,10.62
2023-11-02T01:26:37.833Z,10.65
2023-11-02T01:27:38.087Z,10.63
2023-11-02T01:28:38.341Z,10.62
2023-11-02T01:29:39.301Z,10.65
2023-11-02T01:30:37.666Z,10.65
2023-11-02T01:31:37.870Z,10.63
2023-11-02T01:32:38.211Z,10.63
2023-11-02T01:33:38.578Z,10.62
2023-11-02T01:34:37.582Z,10.62
2023-11-02T01:35:37.736Z,10.62
2023-11-02T01:36:38.017Z,10.60
2023-11-02T01:37:38.177Z,10.65
2023-11-02T01:38:38.467Z,10.63
2023-11-02T01:39:37.568Z,10.63
2023-11-02T01:40:37.777Z,10.63
2023-11-02T01:41:37.996Z,10.66
2023-11-02T01:42:38.237Z,10.65
2023-11-02T01:43:37.482Z,10.63
2023-11-02T01:44:37.694Z,10.63
2023-11-02T01:45:37.939Z,10.65
2023-11-02T01:46:38.125Z,10.62
2023-11-02T01:47:37.393Z,10.63
2023-11-02T01:48:37.662Z,10.60
2023-11-02T01:49:37.819Z,10.58
2023-11-02T01:50:38.027Z,10.60
2023-11-02T01:51:38.258Z,10.62
2023-11-02T01:52:37.486Z,10.63
2023-11-02T01:53:37.692Z,10.60
2023-11-02T01:54:37.874Z,10.60
2023-11-02T01:55:38.100Z,10.62
2023-11-02T01:56:37.277Z,10.62
2023-11-02T01:57:37.541Z,10.58
2023-11-02T01:58:37.747Z,10.57
2023-11-02T01:59:38.040Z,10.58
2023-11-02T02:00:37.326Z,10.57
2023-11-02T02:01:37.396Z,10.57
2023-11-02T02:02:37.665Z,10.58
2023-11-02T02:03:37.924Z,10.60
2023-11-02T02:04:38.067Z,10.58
2023-11-02T02:05:37.304Z,10.60
2023-11-02T02:06:37.519Z,10.52
2023-11-02T02:07:37.722Z,10.60
2023-11-02T02:08:37.872Z,10.57
2023-11-02T02:09:37.108Z,10.57
2023-11-02T02:10:37.432Z,10.58
2023-11-02T02:11:37.665Z,10.55
2023-11-02T02:12:37.857Z,10.57
2023-11-02T02:13:36.960Z,10.60
2023-11-02T02:14:37.182Z,10.57
2023-11-02T02:15:37.597Z,10.57
2023-11-02T02:16:37.633Z,10.58
2023-11-02T02:17:37.834Z,10.58
2023-11-02T02:18:37.118Z,10.58
2023-11-02T02:19:37.364Z,10.57
2023-11-02T02:20:37.554Z,10.55
2023-11-02T02:21:37.743Z,10.55
2023-11-02T02:22:36.947Z,10.55
2023-11-02T02:23:37.196Z,10.52
2023-11-02T02:24:37.431Z,10.55
2023-11-02T02:25:38.629Z,10.55
2023-11-02T02:26:36.829Z,10.55
2023-11-02T02:27:37.129Z,10.57
2023-11-02T02:28:37.365Z,10.54
2023-11-02T02:29:37.535Z,10.57
2023-11-02T02:30:36.757Z,10.58
2023-11-02T02:31:36.990Z,10.58
2023-11-02T02:32:37.282Z,10.60
2023-11-02T02:33:37.606Z,10.60
2023-11-02T02:34:36.725Z,10.57
2023-11-02T02:35:36.949Z,10.57
2023-11-02T02:36:37.163Z,10.57
2023-11-02T02:37:37.465Z,10.57
2023-11-02T02:38:37.659Z,10.57
2023-11-02T02:39:36.802Z,10.57
2023-11-02T02:40:37.065Z,10.60
2023-11-02T02:41:37.266Z,10.62
2023-11-02T02:42:37.620Z,10.63
2023-11-02T02:43:36.700Z,10.70
2023-11-02T02:44:36.894Z,10.65
2023-11-02T02:45:37.164Z,10.65
2023-11-02T02:46:37.343Z,10.66
2023-11-02T02:47:36.592Z,10.69
2023-11-02T02:48:36.958Z,10.70
2023-11-02T02:49:36.967Z,10.69
2023-11-02T02:50:37.166Z,10.69
2023-11-02T02:51:37.409Z,10.72
2023-11-02T02:52:36.585Z,10.69
2023-11-02T02:53:36.844Z,10.69
2023-11-02T02:54:37.118Z,10.68
2023-11-02T02:55:37.265Z,10.65
2023-11-02T02:56:36.486Z,10.62
2023-11-02T02:57:36.732Z,10.66
2023-11-02T02:58:36.879Z,10.66
2023-11-02T02:59:37.056Z,10.68
2023-11-02T03:00:37.532Z,10.70
2023-11-02T03:01:36.514Z,10.70
2023-11-02T03:02:36.695Z,10.72
2023-11-02T03:03:37.036Z,10.69
2023-11-02T03:04:37.138Z,10.73
2023-11-02T03:05:36.319Z,10.73
2023-11-02T03:06:36.637Z,10.73
2023-11-02T03:07:36.768Z,10.73
2023-11-02T03:08:36.996Z,10.72
2023-11-02T03:09:37.223Z,10.72
2023-11-02T03:10:36.423Z,10.73
2023-11-02T03:11:36.611Z,10.73
2023-11-02T03:12:36.961Z,10.73
2023-11-02T03:13:37.077Z,10.73
2023-11-02T03:14:36.239Z,10.75
2023-11-02T03:15:36.497Z,10.73
2023-11-02T03:16:36.668Z,10.73
2023-11-02T03:17:36.940Z,10.72
2023-11-02T03:18:36.223Z,10.73
2023-11-02T03:19:36.405Z,10.72
2023-11-02T03:20:36.558Z,10.72
2023-11-02T03:21:36.863Z,10.70
2023-11-02T03:22:36.013Z,10.70
2023-11-02T03:23:36.206Z,10.70
2023-11-02T03:24:36.505Z,10.72
2023-11-02T03:25:36.687Z,10.72
2023-11-02T03:26:36.904Z,10.70
2023-11-02T03:27:36.060Z,10.70
2023-11-02T03:28:36.378Z,10.70
2023-11-02T03:29:36.578Z,10.66
2023-11-02T03:30:36.788Z,10.65
2023-11-02T03:31:35.952Z,10.62
2023-11-02T03:32:36.217Z,10.63
2023-11-02T03:33:36.485Z,10.63
2023-11-02T03:34:36.618Z,10.63
2023-11-02T03:35:36.857Z,10.65
2023-11-02T03:36:36.101Z,10.66
2023-11-02T03:37:36.318Z,10.66
2023-11-02T03:38:36.567Z,10.62
2023-11-02T03:39:36.843Z,10.65
2023-11-02T03:40:36.122Z,10.62
2023-11-02T03:41:36.257Z,10.63
2023-11-02T03:42:36.536Z,10.65
2023-11-02T03:43:36.775Z,10.65
2023-11-02T03:44:35.926Z,10.66
2023-11-02T03:45:36.268Z,10.66
2023-11-02T03:46:36.383Z,10.66
2023-11-02T03:47:36.734Z,10.68
2023-11-02T03:48:35.911Z,10.68
2023-11-02T03:49:36.095Z,10.69
2023-11-02T03:50:36.417Z,10.70
2023-11-02T03:51:36.578Z,10.73
2023-11-02T03:52:35.806Z,10.73
2023-11-02T03:53:36.062Z,10.72
2023-11-02T03:54:36.265Z,10.73
2023-11-02T03:55:36.568Z,10.72
2023-11-02T03:56:35.807Z,10.70
2023-11-02T03:57:35.724Z,10.73
2023-11-02T03:58:35.907Z,10.72
2023-11-02T03:59:36.112Z,10.72
2023-11-02T04:00:36.423Z,10.73
2023-11-02T04:01:35.587Z,10.70
2023-11-02T04:02:35.875Z,10.70
2023-11-02T04:03:35.999Z,10.66
2023-11-02T04:04:35.644Z,10.70
2023-11-02T04:05:35.870Z,10.70
2023-11-02T04:06:36.140Z,10.72
2023-11-02T04:07:36.286Z,10.73
2023-11-02T04:08:35.445Z,10.75
2023-11-02T04:09:35.642Z,10.76
2023-11-02T04:10:35.846Z,10.76
2023-11-02T04:11:36.031Z,10.76
2023-11-02T04:12:36.452Z,10.80
2023-11-02T04:13:35.472Z,10.83
2023-11-02T04:14:35.660Z,10.81
2023-11-02T04:15:35.943Z,10.83
2023-11-02T04:16:36.047Z,10.83
2023-11-02T04:17:36.839Z,10.86
2023-11-02T04:18:35.469Z,10.86
2023-11-02T04:19:35.684Z,10.87
2023-11-02T04:20:35.892Z,10.87
2023-11-02T04:21:36.097Z,10.88
2023-11-02T04:22:35.272Z,10.91
2023-11-02T04:23:35.455Z,10.91
2023-11-02T04:24:35.645Z,10.94
2023-11-02T04:25:35.852Z,10.98
2023-11-02T04:26:36.111Z,10.98
2023-11-02T04:27:35.443Z,10.99
2023-11-02T04:28:35.558Z,10.98
2023-11-02T04:29:36.788Z,10.99
2023-11-02T04:30:35.950Z,10.99
2023-11-02T04:31:35.128Z,11.01
2023-11-02T04:32:35.369Z,11.01
2023-11-02T04:33:35.644Z,10.99
2023-11-02T04:34:36.059Z,11.01
2023-11-02T04:35:36.108Z,11.05
2023-11-02T04:36:35.288Z,11.05
2023-11-02T04:37:35.513Z,11.05
2023-11-02T04:38:35.806Z,11.09
2023-11-02T04:39:35.994Z,11.08
2023-11-02T04:40:35.230Z,11.06
2023-11-02T04:41:35.363Z,11.06
2023-11-02T04:42:35.720Z,11.02
2023-11-02T04:43:35.892Z,11.01
2023-11-02T04:44:35.067Z,10.98
2023-11-02T04:45:35.596Z,10.95
2023-11-02T04:46:35.582Z,10.91
2023-11-02T04:47:35.817Z,10.88
2023-11-02T04:48:35.064Z,10.87
2023-11-02T04:49:35.289Z,10.84
2023-11-02T04:50:35.685Z,10.81
2023-11-02T04:51:35.740Z,10.83
2023-11-02T04:52:34.961Z,10.81
2023-11-02T04:53:35.199Z,10.78
2023-11-02T04:54:35.484Z,10.72
2023-11-02T04:55:35.680Z,10.68
2023-11-02T04:56:34.898Z,10.63
2023-11-02T04:57:35.182Z,10.62
2023-11-02T04:58:35.405Z,10.58
2023-11-02T04:59:35.595Z,10.55
2023-11-02T05:00:34.878Z,10.58
2023-11-02T05:01:36.099Z,10.58
2023-11-02T05:02:35.394Z,10.57
2023-11-02T05:03:35.677Z,10.60
2023-11-02T05:04:34.800Z,10.54
2023-11-02T05:05:35.016Z,10.57
2023-11-02T05:06:35.394Z,10.54
2023-11-02T05:07:35.557Z,10.51
2023-11-02T05:08:34.698Z,10.52
2023-11-02T05:09:34.966Z,10.52
2023-11-02T05:10:35.187Z,10.51
2023-11-02T05:11:35.528Z,10.55
2023-11-02T05:12:34.675Z,10.54
2023-11-02T05:13:34.983Z,10.52
2023-11-02T05:14:35.164Z,10.51
2023-11-02T05:15:35.416Z,10.52
2023-11-02T05:16:34.622Z,10.51
2023-11-02T05:17:34.915Z,10.49
2023-11-02T05:18:35.101Z,10.51
2023-11-02T05:19:35.356Z,10.47
2023-11-02T05:20:34.524Z,10.47
2023-11-02T05:21:34.807Z,10.47
2023-11-02T05:22:34.997Z,10.52
2023-11-02T05:23:35.245Z,10.55
2023-11-02T05:24:34.506Z,10.58
2023-11-02T05:25:34.680Z,10.55
2023-11-02T05:26:34.950Z,10.55
2023-11-02T05:27:35.206Z,10.58
2023-11-02T05:28:35.460Z,10.57
2023-11-02T05:29:34.641Z,10.57
2023-11-02T05:30:34.926Z,10.57
2023-11-02T05:31:35.068Z,10.57
2023-11-02T05:32:35.373Z,10.57
2023-11-02T05:33:34.577Z,10.52
2023-11-02T05:34:34.979Z,10.57
2023-11-02T05:35:35.090Z,10.55
2023-11-02T05:36:35.308Z,10.55
2023-11-02T05:37:34.484Z,10.54
2023-11-02T05:38:34.749Z,10.55
2023-11-02T05:39:34.971Z,10.55
2023-11-02T05:40:35.251Z,10.57
2023-11-02T05:41:34.489Z,10.57
2023-11-02T05:42:34.678Z,10.55
2023-11-02T05:43:34.866Z,10.54
2023-11-02T05:44:35.134Z,10.54
2023-11-02T05:45:34.409Z,10.52
2023-11-02T05:46:34.651Z,10.52
2023-11-02T05:47:34.907Z,10.54
2023-11-02T05:48:35.138Z,10.38
2023-11-02T05:49:34.347Z,10.49
2023-11-02T05:50:36.188Z,10.47
2023-11-02T05:51:34.788Z,10.47
2023-11-02T05:52:34.980Z,10.43
2023-11-02T05:53:34.192Z,10.42
2023-11-02T05:54:34.541Z,10.36
2023-11-02T05:55:34.701Z,10.42
2023-11-02T05:56:34.946Z,10.38
2023-11-02T05:57:34.113Z,10.42
2023-11-02T05:58:34.359Z,10.39
2023-11-02T05:59:34.626Z,10.46
2023-11-02T06:00:38.049Z,10.42
2023-11-02T06:01:34.089Z,10.38
2023-11-02T06:02:34.379Z,10.38
2023-11-02T06:03:34.646Z,10.36
2023-11-02T06:04:34.862Z,10.42
2023-11-02T06:05:34.073Z,10.39
2023-11-02T06:06:34.346Z,10.42
2023-11-02T06:07:34.506Z,10.39
2023-11-02T06:08:34.750Z,10.46
2023-11-02T06:09:34.024Z,10.51
2023-11-02T06:10:34.206Z,10.58
2023-11-02T06:11:34.452Z,10.62
2023-11-02T06:12:34.719Z,10.62
2023-11-02T06:13:33.923Z,10.65
2023-11-02T06:14:34.107Z,10.65
2023-11-02T06:15:34.353Z,10.70
2023-11-02T06:16:34.627Z,10.73
2023-11-02T06:17:33.802Z,10.76
2023-11-02T06:18:34.182Z,10.78
2023-11-02T06:19:34.404Z,10.80
2023-11-02T06:20:34.544Z,10.81
2023-11-02T06:21:33.791Z,10.80
2023-11-02T06:22:33.976Z,10.81
2023-11-02T06:23:34.276Z,10.86
2023-11-02T06:24:34.643Z,10.90
2023-11-02T06:25:33.729Z,10.93
2023-11-02T06:26:34.011Z,10.91
2023-11-02T06:27:34.259Z,10.91
2023-11-02T06:28:34.505Z,10.88
2023-11-02T06:29:33.862Z,10.87
2023-11-02T06:30:35.950Z,10.86
2023-11-02T06:31:34.217Z,10.84
2023-11-02T06:32:34.516Z,10.81
2023-11-02T06:33:33.833Z,10.83
2023-11-02T06:34:34.973Z,10.86
2023-11-02T06:35:34.190Z,10.87
2023-11-02T06:36:34.497Z,10.86
2023-11-02T06:37:33.598Z,10.83
2023-11-02T06:38:33.816Z,10.81
2023-11-02T06:39:34.159Z,10.80
2023-11-02T06:40:34.314Z,10.80
2023-11-02T06:41:33.567Z,10.78
2023-11-02T06:42:33.787Z,10.81
2023-11-02T06:43:34.026Z,10.80
2023-11-02T06:44:34.275Z,10.73
2023-11-02T06:45:33.483Z,10.75
2023-11-02T06:46:33.763Z,10.73
2023-11-02T06:47:34.024Z,10.75
2023-11-02T06:48:34.327Z,10.75
2023-11-02T06:49:33.544Z,10.72
2023-11-02T06:50:33.765Z,10.70
2023-11-02T06:51:34.056Z,10.72
2023-11-02T06:52:34.414Z,10.72
2023-11-02T06:53:33.459Z,10.72
2023-11-02T06:54:33.755Z,10.73
2023-11-02T06:55:34.007Z,10.75
2023-11-02T06:56:34.195Z,10.75
2023-11-02T06:57:33.629Z,10.76
2023-11-02T06:58:33.665Z,10.78
2023-11-02T06:59:33.959Z,10.80
2023-11-02T07:00:34.160Z,10.80
2023-11-02T07:01:33.310Z,10.76
2023-11-02T07:02:33.577Z,10.75
2023-11-02T07:03:33.863Z,10.73
2023-11-02T07:04:34.125Z,10.72
2023-11-02T07:05:33.294Z,10.72
2023-11-02T07:06:33.483Z,10.73
2023-11-02T07:07:33.672Z,10.70
2023-11-02T07:08:33.944Z,10.72
2023-11-02T07:09:33.200Z,10.72
2023-11-02T07:10:33.366Z,10.70
2023-11-02T07:11:33.600Z,10.69
2023-11-02T07:12:33.889Z,10.69
2023-11-02T07:13:33.040Z,10.68
2023-11-02T07:14:33.395Z,10.68
2023-11-02T07:15:33.624Z,10.65
2023-11-02T07:16:33.730Z,10.66
2023-11-02T07:17:32.946Z,10.66
2023-11-02T07:18:33.267Z,10.66
2023-11-02T07:19:33.521Z,10.65
2023-11-02T07:20:33.652Z,10.65
2023-11-02T07:21:32.881Z,10.68
2023-11-02T07:22:33.073Z,10.68
2023-11-02T07:23:33.346Z,10.66
2023-11-02T07:24:33.634Z,10.65
2023-11-02T07:25:32.790Z,10.63
2023-11-02T07:26:33.013Z,10.62
2023-11-02T07:27:33.309Z,10.65
2023-11-02T07:28:33.489Z,10.63
2023-11-02T07:29:33.728Z,10.62
2023-11-02T07:30:33.093Z,10.58
2023-11-02T07:31:33.154Z,10.58
2023-11-02T07:32:33.393Z,10.57
2023-11-02T07:33:33.691Z,10.57
2023-11-02T07:34:32.874Z,10.57
2023-11-02T07:35:33.091Z,10.55
2023-11-02T07:36:33.423Z,10.57
2023-11-02T07:37:33.563Z,10.58
2023-11-02T07:38:32.689Z,10.60
2023-11-02T07:39:34.066Z,10.65
2023-11-02T07:40:33.206Z,10.65
2023-11-02T07:41:33.415Z,10.66
2023-11-02T07:42:32.691Z,10.69
2023-11-02T07:43:32.829Z,10.70
2023-11-02T07:44:33.127Z,10.75
2023-11-02T07:45:33.410Z,10.78
2023-11-02T07:46:33.562Z,10.78
2023-11-02T07:47:32.881Z,10.78
2023-11-02T07:48:33.131Z,10.80
2023-11-02T07:49:33.289Z,10.81
2023-11-02T07:50:35.428Z,10.81
2023-11-02T07:51:33.778Z,10.83
2023-11-02T07:52:32.957Z,10.88
2023-11-02T07:53:33.209Z,10.91
2023-11-02T07:54:34.008Z,10.94
2023-11-02T07:55:32.647Z,10.98
2023-11-02T07:56:32.903Z,10.99
2023-11-02T07:57:33.261Z,10.99
2023-11-02T07:58:32.380Z,11.01
2023-11-02T07:59:32.638Z,11.03
2023-11-02T08:00:32.869Z,11.06
2023-11-02T08:01:33.078Z,11.09
2023-11-02T08:02:33.291Z,11.13
2023-11-02T08:03:32.576Z,11.16
2023-11-02T08:04:32.789Z,11.17
2023-11-02T08:05:33.008Z,11.20
2023-11-02T08:06:33.424Z,11.20
2023-11-02T08:07:32.456Z,11.23
2023-11-02T08:08:32.696Z,11.24
2023-11-02T08:09:33.130Z,11.24
2023-11-02T08:10:32.185Z,11.24
2023-11-02T08:11:32.509Z,11.24
2023-11-02T08:12:34.212Z,11.27
2023-11-02T08:13:32.937Z,11.26
2023-11-02T08:14:33.115Z,11.28
2023-11-02T08:15:32.347Z,11.30
2023-11-02T08:16:32.551Z,11.31
2023-11-02T08:17:32.823Z,11.35
2023-11-02T08:18:33.070Z,11.38
2023-11-02T08:19:32.256Z,11.41
2023-11-02T08:20:32.512Z,11.42
2023-11-02T08:21:32.759Z,11.46
2023-11-02T08:22:32.937Z,11.49
2023-11-02T08:23:32.081Z,11.51
2023-11-02T08:24:32.315Z,11.53
2023-11-02T08:25:32.523Z,11.57
2023-11-02T08:26:32.760Z,11.60
2023-11-02T08:27:33.002Z,11.64
2023-11-02T08:28:34.724Z,11.66
2023-11-02T08:29:32.393Z,11.66
2023-11-02T08:30:32.674Z,11.66
2023-11-02T08:31:32.874Z,11.69
2023-11-02T08:32:32.082Z,11.69
2023-11-02T08:33:32.322Z,11.72
2023-11-02T08:34:32.755Z,11.75
2023-11-02T08:35:32.697Z,11.77
2023-11-02T08:36:31.924Z,11.77
2023-11-02T08:37:32.220Z,11.81
2023-11-02T08:38:32.372Z,11.84
2023-11-02T08:39:34.279Z,11.84
2023-11-02T08:40:32.811Z,11.85
2023-11-02T08:41:31.988Z,11.87
2023-11-02T08:42:32.278Z,11.88
2023-11-02T08:43:32.580Z,11.94
2023-11-02T08:44:32.734Z,11.94
2023-11-02T08:45:32.081Z,11.97
2023-11-02T08:46:32.135Z,11.98
2023-11-02T08:47:32.442Z,12.01
2023-11-02T08:48:32.643Z,12.03
2023-11-02T08:49:31.839Z,12.04
2023-11-02T08:50:32.004Z,12.04
2023-11-02T08:51:32.305Z,12.03
2023-11-02T08:52:32.471Z,12.01
2023-11-02T08:53:32.712Z,12.01
2023-11-02T08:54:31.884Z,12.00
2023-11-02T08:55:32.043Z,12.01
2023-11-02T08:56:32.304Z,11.98
2023-11-02T08:57:32.578Z,11.98
2023-11-02T08:58:31.720Z,12.00
2023-11-02T08:59:31.852Z,12.01
2023-11-02T09:00:32.130Z,12.05
2023-11-02T09:01:32.347Z,12.07
2023-11-02T09:02:32.508Z,12.08
2023-11-02T09:03:31.703Z,12.11
2023-11-02T09:04:31.976Z,12.12
2023-11-02T09:05:32.120Z,12.13
2023-11-02T09:06:32.442Z,12.16
2023-11-02T09:07:31.541Z,12.19
2023-11-02T09:08:31.757Z,12.21
2023-11-02T09:09:32.041Z,12.22
2023-11-02T09:10:32.235Z,12.22
2023-11-02T09:11:31.425Z,12.26
2023-11-02T09:12:31.718Z,12.26
2023-11-02T09:13:32.795Z,12.29
2023-11-02T09:14:32.137Z,12.31
2023-11-02T09:15:32.391Z,12.33
2023-11-02T09:16:31.547Z,12.36
2023-11-02T09:17:31.799Z,12.37
2023-11-02T09:18:32.060Z,12.40
2023-11-02T09:19:32.256Z,12.41
2023-11-02T09:20:31.374Z,12.41
2023-11-02T09:21:31.774Z,12.44
2023-11-02T09:22:31.905Z,12.49
2023-11-02T09:23:32.034Z,12.52
2023-11-02T09:24:31.239Z,12.54
2023-11-02T09:25:31.437Z,12.58
2023-11-02T09:26:31.625Z,12.61
2023-11-02T09:27:32.095Z,12.62
2023-11-02T09:28:32.986Z,12.63
2023-11-02T09:29:31.205Z,12.67
2023-11-02T09:30:31.426Z,12.69
2023-11-02T09:31:31.593Z,12.69
2023-11-02T09:32:31.803Z,12.70
2023-11-02T09:33:32.161Z,12.70
2023-11-02T09:34:31.173Z,12.71
2023-11-02T09:35:31.357Z,12.73
2023-11-02T09:36:31.625Z,12.74
2023-11-02T09:37:31.758Z,12.76
2023-11-02T09:38:31.958Z,12.76
2023-11-02T09:39:31.191Z,12.77
2023-11-02T09:40:31.322Z,12.77
2023-11-02T09:41:31.529Z,12.77
2023-11-02T09:42:31.777Z,12.79
2023-11-02T09:43:31.922Z,12.81
2023-11-02T09:44:31.097Z,12.84
2023-11-02T09:45:31.411Z,12.88
2023-11-02T09:46:31.693Z,12.91
2023-11-02T09:47:31.666Z,12.92
2023-11-02T09:48:31.935Z,12.96
2023-11-02T09:49:31.081Z,12.95
2023-11-02T09:50:31.260Z,12.95
2023-11-02T09:51:31.487Z,13.01
2023-11-02T09:52:31.695Z,13.01
2023-11-02T09:53:30.881Z,13.04
2023-11-02T09:54:38.407Z,13.07
2023-11-02T09:55:32.289Z,13.10
2023-11-02T09:56:31.483Z,13.12
2023-11-02T09:57:31.761Z,13.13
2023-11-02T09:58:30.881Z,13.14
2023-11-02T09:59:31.100Z,13.17
2023-11-02T10:00:31.329Z,13.19
2023-11-02T10:01:31.501Z,13.22
2023-11-02T10:02:30.686Z,13.24
2023-11-02T10:03:30.961Z,13.27
2023-11-02T10:04:31.125Z,13.29
2023-11-02T10:05:31.379Z,13.32
2023-11-02T10:06:31.587Z,13.35
2023-11-02T10:07:30.698Z,13.32
2023-11-02T10:08:30.882Z,13.36
2023-11-02T10:09:31.143Z,13.43
2023-11-02T10:10:31.317Z,13.51
2023-11-02T10:11:31.523Z,13.55
2023-11-02T10:12:30.748Z,13.57
2023-11-02T10:13:30.939Z,13.61
2023-11-02T10:14:31.129Z,13.61
2023-11-02T10:15:31.386Z,13.57
2023-11-02T10:16:30.546Z,13.55
2023-11-02T10:17:31.766Z,13.54
2023-11-02T10:18:31.022Z,13.53
2023-11-02T10:19:31.314Z,13.51
2023-11-02T10:20:31.390Z,13.55
2023-11-02T10:21:30.596Z,13.55
2023-11-02T10:22:30.802Z,13.54
2023-11-02T10:23:30.989Z,13.59
2023-11-02T10:24:31.248Z,13.55
2023-11-02T10:25:30.417Z,13.55
2023-11-02T10:26:30.780Z,13.54
2023-11-02T10:27:30.846Z,13.55
2023-11-02T10:28:31.057Z,13.55
2023-11-02T10:29:31.255Z,13.55
2023-11-02T10:30:30.484Z,13.55
2023-11-02T10:31:30.602Z,13.57
2023-11-02T10:32:30.860Z,13.61
2023-11-02T10:33:31.049Z,13.66
2023-11-02T10:34:31.284Z,13.66
2023-11-02T10:35:30.412Z,13.69
2023-11-02T10:36:30.586Z,13.69
2023-11-02T10:37:30.774Z,13.71
2023-11-02T10:38:30.975Z,13.72
2023-11-02T10:39:31.181Z,13.73
2023-11-02T10:40:30.393Z,13.76
2023-11-02T10:41:30.527Z,13.75
2023-11-02T10:42:30.885Z,13.79
2023-11-02T10:43:30.914Z,13.80
2023-11-02T10:44:31.133Z,13.79
2023-11-02T10:45:30.378Z,13.80
2023-11-02T10:46:30.634Z,13.79
2023-11-02T10:47:30.726Z,13.81
2023-11-02T10:48:30.944Z,13.79
2023-11-02T10:49:30.186Z,13.80
2023-11-02T10:50:31.349Z,13.80
2023-11-02T10:51:30.490Z,13.83
2023-11-02T10:52:30.690Z,13.79
2023-11-02T10:53:30.897Z,13.80
2023-11-02T10:54:30.070Z,13.79
2023-11-02T10:55:30.231Z,13.80
2023-11-02T10:56:30.397Z,13.80
2023-11-02T10:57:30.626Z,13.83
2023-11-02T10:58:30.801Z,13.84
2023-11-02T10:59:30.926Z,13.81
2023-11-02T11:00:30.136Z,13.83
2023-11-02T11:01:30.229Z,13.87
2023-11-02T11:02:30.468Z,13.88
2023-11-02T11:03:30.602Z,13.90
2023-11-02T11:04:30.828Z,13.91
2023-11-02T11:05:29.874Z,13.91
2023-11-02T11:06:30.122Z,13.90
2023-11-02T11:07:30.197Z,13.88
2023-11-02T11:08:30.399Z,13.84
2023-11-02T11:09:30.577Z,13.84
2023-11-02T11:10:30.767Z,13.83
2023-11-02T11:11:29.851Z,13.81
2023-11-02T11:12:30.068Z,13.76
2023-11-02T11:13:30.291Z,13.73
2023-11-02T11:14:30.397Z,13.73
2023-11-02T11:15:30.637Z,13.75
2023-11-02T11:16:29.789Z,13.75
2023-11-02T11:17:29.985Z,13.79
2023-11-02T11:18:30.246Z,13.79
2023-11-02T11:19:30.380Z,13.75
2023-11-02T11:20:30.576Z,13.75
2023-11-02T11:21:29.745Z,13.76
2023-11-02T11:22:30.043Z,13.79
2023-11-02T11:23:30.134Z,13.79
2023-11-02T11:24:30.372Z,13.75
2023-11-02T11:25:30.535Z,13.79
2023-11-02T11:26:29.707Z,13.75
2023-11-02T11:27:29.968Z,13.71
2023-11-02T11:28:30.193Z,13.69
2023-11-02T11:29:30.356Z,13.68
2023-11-02T11:30:29.587Z,13.69
2023-11-02T11:31:29.728Z,13.66
2023-11-02T11:32:29.971Z,13.65
2023-11-02T11:33:30.185Z,13.63
2023-11-02T11:34:30.397Z,13.65
2023-11-02T11:35:29.612Z,13.63
2023-11-02T11:36:29.796Z,13.66
2023-11-02T11:37:29.929Z,13.62
2023-11-02T11:38:30.133Z,13.61
2023-11-02T11:39:30.423Z,13.63
2023-11-02T11:40:29.976Z,13.65
2023-11-02T11:41:29.756Z,13.65
2023-11-02T11:42:29.881Z,13.68
2023-11-02T11:43:29.989Z,13.66
2023-11-02T11:44:30.194Z,13.65
2023-11-02T11:45:29.356Z,13.63
2023-11-02T11:46:29.619Z,13.62
2023-11-02T11:47:29.757Z,13.62
2023-11-02T11:48:30.001Z,13.59
2023-11-02T11:49:30.174Z,13.59
2023-11-02T11:50:29.331Z,13.59
2023-11-02T11:51:29.582Z,13.55
2023-11-02T11:52:29.819Z,13.55
2023-11-02T11:53:30.031Z,13.55
2023-11-02T11:54:30.190Z,13.59
2023-11-02T11:55:29.970Z,13.61
2023-11-02T11:56:29.510Z,13.55
2023-11-02T11:57:29.761Z,13.54
2023-11-02T11:58:30.007Z,13.55
2023-11-02T11:59:30.149Z,13.53
2023-11-02T12:00:29.384Z,13.57
2023-11-02T12:01:29.488Z,13.68
2023-11-02T12:02:29.707Z,13.72
2023-11-02T12:03:29.866Z,13.68
2023-11-02T12:04:30.170Z,13.65
2023-11-02T12:05:29.257Z,13.61
2023-11-02T12:06:29.450Z,13.59
2023-11-02T12:07:29.680Z,13.57
2023-11-02T12:08:29.869Z,13.59
2023-11-02T12:09:29.042Z,13.63
2023-11-02T12:10:29.240Z,13.68
2023-11-02T12:11:29.422Z,13.75
2023-11-02T12:12:29.655Z,13.83
2023-11-02T12:13:29.828Z,13.93
2023-11-02T12:14:29.534Z,13.98
2023-11-02T12:15:29.236Z,13.99
2023-11-02T12:16:29.435Z,14.04
2023-11-02T12:17:29.618Z,14.08
2023-11-02T12:18:29.958Z,14.09
2023-11-02T12:19:29.648Z,14.17
2023-11-02T12:20:29.200Z,14.17
2023-11-02T12:21:29.456Z,14.13
2023-11-02T12:22:29.671Z,14.12
2023-11-02T12:23:29.789Z,14.09
2023-11-02T12:24:29.026Z,14.06
2023-11-02T12:25:29.234Z,13.99
2023-11-02T12:26:29.385Z,13.93
2023-11-02T12:27:29.719Z,13.90
2023-11-02T12:28:30.032Z,13.86
2023-11-02T12:29:28.984Z,13.90
2023-11-02T12:30:29.177Z,13.80
2023-11-02T12:31:29.403Z,13.76
2023-11-02T12:32:29.595Z,13.72
2023-11-02T12:33:28.760Z,13.73
2023-11-02T12:34:29.041Z,13.73
2023-11-02T12:35:29.165Z,13.75
2023-11-02T12:36:29.474Z,13.79
2023-11-02T12:37:30.709Z,13.86
2023-11-02T12:38:28.756Z,13.93
2023-11-02T12:39:29.071Z,13.93
2023-11-02T12:40:29.251Z,13.93
2023-11-02T12:41:30.299Z,13.88
2023-11-02T12:42:29.583Z,13.91
2023-11-02T12:43:28.716Z,13.96
2023-11-02T12:44:28.924Z,13.96
2023-11-02T12:45:30.290Z,13.98
2023-11-02T12:46:29.401Z,13.99
2023-11-02T12:47:29.527Z,14.04
2023-11-02T12:48:29.717Z,14.13
2023-11-02T12:49:28.973Z,14.30
2023-11-02T12:50:29.053Z,14.44
2023-11-02T12:51:29.506Z,14.41
2023-11-02T12:52:29.433Z,14.35